createdAt,value
2023-06-01T00:02:24.185Z,18.31
2023-06-01T00:04:51.308Z,18.20
2023-06-01T00:07:18.162Z,18.09
2023-06-01T00:09:44.670Z,17.96
2023-06-01T00:12:11.920Z,17.92
2023-06-01T00:14:38.804Z,17.80
2023-06-01T00:17:06.796Z,17.75
2023-06-01T00:19:33.881Z,17.79
2023-06-01T00:22:01.025Z,17.85
2023-06-01T00:24:27.650Z,17.90
2023-06-01T00:26:54.353Z,17.86
2023-06-01T00:29:21.921Z,17.84
2023-06-01T00:31:48.591Z,17.82
2023-06-01T00:34:15.581Z,17.73
2023-06-01T00:36:42.197Z,17.62
2023-06-01T00:39:11.686Z,17.59
2023-06-01T00:41:38.472Z,17.61
2023-06-01T00:44:05.725Z,17.64
2023-06-01T00:46:33.072Z,17.61
2023-06-01T00:49:00.221Z,17.60
2023-06-01T00:51:27.714Z,17.53
2023-06-01T00:53:54.533Z,17.49
2023-06-01T00:56:22.470Z,17.52
2023-06-01T00:58:49.623Z,17.52
2023-06-01T01:01:24.194Z,17.49
2023-06-01T01:03:58.645Z,17.45
2023-06-01T01:06:57.415Z,17.40
2023-06-01T01:09:33.253Z,17.38
2023-06-01T01:12:13.742Z,17.38
2023-06-01T01:14:48.456Z,17.36
2023-06-01T01:17:35.568Z,17.38
2023-06-01T01:20:16.567Z,17.39
2023-06-01T01:23:07.819Z,17.37
2023-06-01T01:25:53.002Z,17.37
2023-06-01T01:28:49.859Z,17.34
2023-06-01T01:31:24.524Z,17.31
2023-06-01T01:33:53.913Z,17.28
2023-06-01T01:36:21.426Z,17.20
2023-06-01T01:38:48.286Z,17.15
2023-06-01T01:41:15.279Z,17.13
2023-06-01T01:43:43.722Z,17.09
2023-06-01T01:46:28.847Z,17.06
2023-06-01T01:49:18.589Z,17.07
2023-06-01T01:51:58.767Z,17.04
2023-06-01T01:54:26.643Z,17.04
2023-06-01T01:56:59.113Z,17.01
2023-06-01T01:59:27.970Z,16.98
2023-06-01T02:01:54.870Z,16.96
2023-06-01T02:04:21.493Z,16.91
2023-06-01T02:06:48.122Z,16.88
2023-06-01T02:09:15.130Z,16.83
2023-06-01T02:11:41.678Z,16.82
2023-06-01T02:14:08.235Z,16.78
2023-06-01T02:16:35.025Z,16.74
2023-06-01T02:19:03.917Z,16.72
2023-06-01T02:21:30.644Z,16.64
2023-06-01T02:23:57.465Z,16.64
2023-06-01T02:26:24.057Z,16.63
2023-06-01T02:28:50.975Z,16.58
2023-06-01T02:31:17.498Z,16.49
2023-06-01T02:33:44.042Z,16.45
2023-06-01T02:36:11.582Z,16.49
2023-06-01T02:38:38.126Z,16.51
2023-06-01T02:41:05.128Z,16.52
2023-06-01T02:43:35.500Z,16.55
2023-06-01T02:46:02.810Z,16.52
2023-06-01T02:48:29.734Z,16.51
2023-06-01T02:50:56.553Z,16.44
2023-06-01T02:53:23.807Z,16.41
2023-06-01T02:55:50.542Z,16.33
2023-06-01T02:58:17.632Z,16.29
2023-06-01T03:00:44.714Z,16.27
2023-06-01T03:03:11.591Z,16.24
2023-06-01T03:05:38.207Z,16.23
2023-06-01T03:08:07.436Z,16.22
2023-06-01T03:10:34.072Z,16.23
2023-06-01T03:13:02.295Z,16.15
2023-06-01T03:15:28.822Z,16.13
2023-06-01T03:17:55.465Z,16.09
2023-06-01T03:20:22.509Z,16.04
2023-06-01T03:22:49.331Z,16.00
2023-06-01T03:25:17.779Z,15.98
2023-06-01T03:27:46.063Z,15.97
2023-06-01T03:30:13.152Z,15.96
2023-06-01T03:32:42.533Z,15.97
2023-06-01T03:35:10.892Z,15.98
2023-06-01T03:37:39.389Z,15.92
2023-06-01T03:40:12.750Z,15.83
2023-06-01T03:42:41.533Z,15.84
2023-06-01T03:45:09.777Z,15.86
2023-06-01T03:47:36.839Z,15.83
2023-06-01T03:50:05.138Z,15.81
2023-06-01T03:52:31.663Z,15.78
2023-06-01T03:55:02.419Z,15.82
2023-06-01T03:57:29.603Z,15.88
2023-06-01T03:59:56.177Z,15.88
2023-06-01T04:02:24.200Z,15.89
2023-06-01T04:04:51.055Z,15.79
2023-06-01T04:07:20.740Z,15.80
2023-06-01T04:09:47.565Z,15.83
2023-06-01T04:12:15.122Z,15.87
2023-06-01T04:14:42.061Z,15.92
2023-06-01T04:17:09.004Z,15.94
2023-06-01T04:19:35.751Z,15.93
2023-06-01T04:22:02.538Z,15.97
2023-06-01T04:24:30.995Z,16.02
2023-06-01T04:26:57.789Z,16.06
2023-06-01T04:29:26.037Z,16.07
2023-06-01T04:31:52.646Z,16.09
2023-06-01T04:34:19.480Z,16.14
2023-06-01T04:36:47.490Z,16.17
2023-06-01T04:39:14.282Z,16.24
2023-06-01T04:41:40.941Z,16.32
2023-06-01T04:44:08.311Z,16.44
2023-06-01T04:46:36.373Z,16.50
2023-06-01T04:49:03.827Z,16.61
2023-06-01T04:51:32.718Z,16.72
2023-06-01T04:54:00.150Z,16.86
2023-06-01T04:56:28.090Z,17.00
2023-06-01T04:58:56.812Z,17.09
2023-06-01T05:01:27.128Z,17.06
2023-06-01T05:03:56.072Z,17.20
2023-06-01T05:06:23.753Z,17.36
2023-06-01T05:08:50.614Z,17.53
2023-06-01T05:11:17.460Z,17.69
2023-06-01T05:13:45.454Z,17.84
2023-06-01T05:16:12.129Z,17.70
2023-06-01T05:18:40.741Z,17.67
2023-06-01T05:21:07.234Z,17.67
2023-06-01T05:23:34.045Z,17.77
2023-06-01T05:26:03.642Z,17.68
2023-06-01T05:28:33.275Z,17.47
2023-06-01T05:31:01.846Z,17.33
2023-06-01T05:33:29.111Z,17.35
2023-06-01T05:35:55.756Z,17.42
2023-06-01T05:38:22.385Z,17.44
2023-06-01T05:40:48.929Z,17.34
2023-06-01T05:43:16.589Z,17.33
2023-06-01T05:45:44.668Z,17.41
2023-06-01T05:48:14.895Z,17.51
2023-06-01T05:50:42.625Z,17.64
2023-06-01T05:53:10.791Z,17.72
2023-06-01T05:55:37.533Z,17.97
2023-06-01T05:58:04.354Z,18.00
2023-06-01T06:00:31.304Z,18.07
2023-06-01T06:02:58.160Z,18.24
2023-06-01T06:05:24.740Z,18.57
2023-06-01T06:07:51.696Z,18.88
2023-06-01T06:10:18.476Z,18.97
2023-06-01T06:12:45.264Z,18.87
2023-06-01T06:15:11.805Z,18.89
2023-06-01T06:17:38.328Z,19.06
2023-06-01T06:20:08.595Z,19.20
2023-06-01T06:22:35.464Z,19.23
2023-06-01T06:25:02.381Z,19.34
2023-06-01T06:27:28.977Z,19.50
2023-06-01T06:29:55.527Z,19.59
2023-06-01T06:32:22.931Z,19.66
2023-06-01T06:34:49.554Z,19.75
2023-06-01T06:37:16.355Z,19.71
2023-06-01T06:39:43.125Z,19.71
2023-06-01T06:42:09.943Z,19.83
2023-06-01T06:44:36.700Z,19.78
2023-06-01T06:47:03.321Z,19.75
2023-06-01T06:49:30.276Z,19.76
2023-06-01T06:51:57.398Z,19.97
2023-06-01T06:54:24.351Z,20.08
2023-06-01T06:56:50.999Z,20.20
2023-06-01T06:59:18.294Z,20.45
2023-06-01T07:01:44.919Z,20.65
2023-06-01T07:04:11.893Z,20.89
2023-06-01T07:06:38.582Z,20.92
2023-06-01T07:09:07.008Z,20.74
2023-06-01T07:11:33.711Z,20.75
2023-06-01T07:14:01.019Z,20.77
2023-06-01T07:16:30.446Z,20.71
2023-06-01T07:18:57.954Z,20.86
2023-06-01T07:21:24.863Z,20.69
2023-06-01T07:23:51.638Z,20.75
2023-06-01T07:26:18.148Z,21.01
2023-06-01T07:28:45.170Z,20.97
2023-06-01T07:31:11.884Z,20.95
2023-06-01T07:33:38.863Z,20.87
2023-06-01T07:36:08.680Z,21.16
2023-06-01T07:38:35.293Z,21.51
2023-06-01T07:41:02.661Z,21.57
2023-06-01T07:43:29.388Z,21.65
2023-06-01T07:45:56.735Z,21.75
2023-06-01T07:48:23.650Z,21.61
2023-06-01T07:50:52.399Z,21.53
2023-06-01T07:53:19.890Z,21.65
2023-06-01T07:55:46.644Z,21.71
2023-06-01T07:58:13.478Z,21.91
2023-06-01T08:00:40.620Z,21.93
2023-06-01T08:03:07.601Z,21.95
2023-06-01T08:05:39.532Z,22.07
2023-06-01T08:08:06.362Z,22.32
2023-06-01T08:10:34.131Z,22.69
2023-06-01T08:13:00.923Z,22.51
2023-06-01T08:15:28.442Z,22.51
2023-06-01T08:17:58.325Z,22.61
2023-06-01T08:20:26.965Z,22.49
2023-06-01T08:22:54.612Z,22.62
2023-06-01T08:25:21.931Z,22.69
2023-06-01T08:27:50.255Z,22.77
2023-06-01T08:30:16.876Z,22.83
2023-06-01T08:32:43.476Z,23.01
2023-06-01T08:35:10.232Z,23.15
2023-06-01T08:37:37.641Z,23.20
2023-06-01T08:40:11.226Z,23.22
2023-06-01T08:42:48.502Z,23.27
2023-06-01T08:45:15.253Z,23.45
2023-06-01T08:47:43.090Z,23.71
2023-06-01T08:50:16.447Z,23.56
2023-06-01T08:52:45.725Z,23.57
2023-06-01T08:55:12.851Z,23.52
2023-06-01T08:57:43.323Z,23.44
2023-06-01T09:00:15.947Z,23.36
2023-06-01T09:02:44.045Z,23.64
2023-06-01T09:05:12.448Z,23.66
2023-06-01T09:07:41.122Z,23.80
2023-06-01T09:10:08.701Z,23.89
2023-06-01T09:12:35.855Z,23.98
2023-06-01T09:15:10.318Z,24.38
2023-06-01T09:17:37.982Z,24.44
2023-06-01T09:20:06.065Z,24.37
2023-06-01T09:22:46.573Z,24.46
2023-06-01T09:25:16.150Z,24.55
2023-06-01T09:27:46.649Z,24.76
2023-06-01T09:30:14.861Z,25.04
2023-06-01T09:32:42.981Z,25.05
2023-06-01T09:35:09.721Z,25.20
2023-06-01T09:37:39.086Z,25.31
2023-06-01T09:40:20.355Z,25.46
2023-06-01T09:42:50.979Z,25.44
2023-06-01T09:45:21.716Z,25.52
2023-06-01T09:47:52.690Z,25.60
2023-06-01T09:50:40.281Z,25.62
2023-06-01T09:53:07.629Z,25.78
2023-06-01T09:55:34.334Z,25.71
2023-06-01T09:58:21.936Z,25.88
2023-06-01T10:00:52.709Z,26.07
2023-06-01T10:03:21.653Z,26.08
2023-06-01T10:05:49.768Z,26.04
2023-06-01T10:08:18.342Z,25.91
2023-06-01T10:10:47.366Z,25.70
2023-06-01T10:13:14.760Z,26.00
2023-06-01T10:15:41.821Z,26.13
2023-06-01T10:18:09.359Z,26.29
2023-06-01T10:20:38.149Z,26.64
2023-06-01T10:23:07.422Z,26.60
2023-06-01T10:25:47.307Z,26.67
2023-06-01T10:28:15.166Z,26.71
2023-06-01T10:30:43.247Z,26.88
2023-06-01T10:33:10.098Z,27.06
2023-06-01T10:35:42.762Z,27.15
2023-06-01T10:38:15.508Z,27.37
2023-06-01T10:40:43.640Z,27.54
2023-06-01T10:43:39.056Z,27.54
2023-06-01T10:46:34.195Z,27.69
2023-06-01T10:49:00.901Z,27.88
2023-06-01T10:51:29.257Z,27.77
2023-06-01T10:54:18.156Z,27.50
2023-06-01T10:56:44.976Z,27.52
2023-06-01T10:59:18.973Z,27.18
2023-06-01T11:01:48.389Z,27.00
2023-06-01T11:04:16.530Z,27.32
2023-06-01T11:06:44.965Z,27.54
2023-06-01T11:09:13.152Z,27.69
2023-06-01T11:11:49.247Z,27.54
2023-06-01T11:14:17.374Z,27.67
2023-06-01T11:16:48.799Z,27.33
2023-06-01T11:19:22.030Z,27.26
2023-06-01T11:21:50.626Z,27.39
2023-06-01T11:24:18.907Z,27.68
2023-06-01T11:26:47.927Z,27.70
2023-06-01T11:29:23.224Z,27.95
2023-06-01T11:31:51.804Z,28.03
2023-06-01T11:34:20.110Z,28.15
2023-06-01T11:36:51.800Z,28.08
2023-06-01T11:39:23.864Z,27.84
2023-06-01T11:42:13.846Z,27.84
2023-06-01T11:44:42.423Z,27.86
2023-06-01T11:47:10.665Z,27.84
2023-06-01T11:49:50.642Z,28.18
2023-06-01T11:52:20.701Z,28.42
2023-06-01T11:54:48.960Z,28.45
2023-06-01T11:57:16.020Z,28.33
2023-06-01T11:59:47.702Z,28.29
2023-06-01T12:02:27.480Z,28.09
2023-06-01T12:04:59.839Z,28.37
2023-06-01T12:07:26.944Z,28.43
2023-06-01T12:09:59.173Z,28.41
2023-06-01T12:12:27.821Z,28.51
2023-06-01T12:14:56.458Z,28.49
2023-06-01T12:17:24.072Z,28.53
2023-06-01T12:19:51.472Z,28.26
2023-06-01T12:22:18.439Z,27.92
2023-06-01T12:24:45.925Z,28.17
2023-06-01T12:27:23.569Z,28.52
2023-06-01T12:29:52.959Z,28.46
2023-06-01T12:32:20.846Z,28.21
2023-06-01T12:35:04.731Z,28.29
2023-06-01T12:37:33.038Z,28.63
2023-06-01T12:40:02.642Z,28.77
2023-06-01T12:42:39.233Z,28.61
2023-06-01T12:45:11.421Z,28.96
2023-06-01T12:47:39.800Z,29.30
2023-06-01T12:50:08.439Z,29.22
2023-06-01T12:52:43.745Z,29.16
2023-06-01T12:55:11.407Z,29.29
2023-06-01T12:57:39.573Z,29.25
2023-06-01T13:00:08.032Z,28.78
2023-06-01T13:02:37.030Z,28.45
2023-06-01T13:05:06.080Z,28.32
2023-06-01T13:07:32.778Z,28.63
2023-06-01T13:09:59.998Z,28.88
2023-06-01T13:12:29.006Z,29.05
2023-06-01T13:14:56.991Z,29.10
2023-06-01T13:17:23.810Z,29.37
2023-06-01T13:19:50.697Z,29.47
2023-06-01T13:22:17.254Z,29.68
2023-06-01T13:27:13.810Z,29.51
2023-06-01T13:29:40.545Z,29.45
2023-06-01T13:32:07.471Z,29.04
2023-06-01T13:34:34.328Z,29.19
2023-06-01T13:37:02.145Z,29.15
2023-06-01T13:39:28.679Z,29.12
2023-06-01T13:41:55.445Z,28.68
2023-06-01T13:44:23.385Z,28.69
2023-06-01T13:46:50.841Z,28.77
2023-06-01T13:49:17.675Z,28.91
2023-06-01T13:51:44.674Z,29.08
2023-06-01T13:54:14.337Z,29.09
2023-06-01T13:56:43.025Z,29.30
2023-06-01T13:59:09.515Z,29.40
2023-06-01T14:01:36.543Z,29.53
2023-06-01T14:04:04.512Z,29.68
2023-06-01T14:06:31.928Z,29.83
2023-06-01T14:09:00.555Z,29.40
2023-06-01T14:11:29.890Z,29.37
2023-06-01T14:13:57.968Z,29.31
2023-06-01T14:16:24.495Z,29.08
2023-06-01T14:18:51.052Z,29.15
2023-06-01T14:21:17.963Z,29.16
2023-06-01T14:23:49.235Z,29.08
2023-06-01T14:26:15.808Z,29.11
2023-06-01T14:28:42.504Z,29.35
2023-06-01T14:31:09.112Z,29.21
2023-06-01T14:33:35.876Z,29.01
2023-06-01T14:36:02.698Z,28.80
2023-06-01T14:38:30.570Z,29.01
2023-06-01T14:40:57.362Z,29.11
2023-06-01T14:43:23.976Z,28.96
2023-06-01T14:45:50.574Z,29.02
2023-06-01T14:48:17.400Z,28.78
2023-06-01T14:50:44.051Z,28.61
2023-06-01T14:53:10.655Z,28.74
2023-06-01T14:55:37.119Z,28.81
2023-06-01T14:58:03.878Z,28.99
2023-06-01T15:00:30.726Z,29.36
2023-06-01T15:02:57.493Z,29.63
2023-06-01T15:05:24.483Z,29.97
2023-06-01T15:07:52.576Z,30.02
2023-06-01T15:10:19.276Z,30.26
2023-06-01T15:12:46.309Z,30.15
2023-06-01T15:15:16.266Z,30.07
2023-06-01T15:17:42.796Z,30.14
2023-06-01T15:20:09.765Z,29.97
2023-06-01T15:22:37.843Z,29.87
2023-06-01T15:25:05.179Z,29.76
2023-06-01T15:27:32.152Z,29.80
2023-06-01T15:29:58.751Z,29.73
2023-06-01T15:32:25.575Z,29.75
2023-06-01T15:34:52.268Z,29.62
2023-06-01T15:37:21.188Z,29.51
2023-06-01T15:39:48.104Z,29.49
2023-06-01T15:42:16.236Z,29.42
2023-06-01T15:44:44.825Z,29.51
2023-06-01T15:47:12.627Z,29.87
2023-06-01T15:49:42.416Z,29.99
2023-06-01T15:52:09.415Z,30.08
2023-06-01T15:54:37.316Z,30.18
2023-06-01T15:57:08.668Z,30.10
2023-06-01T15:59:35.811Z,30.02
2023-06-01T16:02:06.668Z,29.92
2023-06-01T16:04:33.497Z,29.90
2023-06-01T16:07:00.221Z,30.00
2023-06-01T16:09:28.238Z,30.33
2023-06-01T16:11:54.820Z,30.81
2023-06-01T16:14:21.622Z,31.12
2023-06-01T16:16:49.814Z,31.51
2023-06-01T16:19:16.603Z,31.88
2023-06-01T16:21:43.401Z,31.92
2023-06-01T16:24:09.924Z,32.40
2023-06-01T16:26:36.633Z,32.81
2023-06-01T16:29:03.321Z,33.11
2023-06-01T16:31:29.934Z,33.53
2023-06-01T16:33:58.804Z,33.87
2023-06-01T16:36:25.322Z,34.12
2023-06-01T16:38:51.965Z,34.78
2023-06-01T16:41:19.006Z,35.27
2023-06-01T16:43:48.572Z,34.94
2023-06-01T16:46:15.139Z,35.15
2023-06-01T16:48:42.801Z,35.59
2023-06-01T16:51:10.640Z,36.25
2023-06-01T16:53:37.323Z,36.42
2023-06-01T16:56:04.334Z,36.62
2023-06-01T16:58:31.232Z,36.46
2023-06-01T17:01:02.274Z,36.39
2023-06-01T17:03:31.715Z,35.79
2023-06-01T17:05:58.504Z,35.45
2023-06-01T17:08:26.368Z,35.44
2023-06-01T17:10:52.875Z,34.79
2023-06-01T17:13:19.418Z,34.97
2023-06-01T17:15:46.155Z,34.55
2023-06-01T17:18:14.232Z,34.46
2023-06-01T17:20:43.927Z,34.09
2023-06-01T17:23:10.762Z,33.83
2023-06-01T17:25:37.266Z,33.62
2023-06-01T17:28:04.298Z,33.14
2023-06-01T17:30:31.574Z,33.28
2023-06-01T17:32:58.786Z,33.84
2023-06-01T17:35:25.905Z,34.22
2023-06-01T17:37:52.823Z,34.58
2023-06-01T17:40:19.420Z,34.98
2023-06-01T17:42:46.427Z,33.91
2023-06-01T17:45:14.598Z,32.20
2023-06-01T17:47:41.415Z,30.82
2023-06-01T17:50:08.426Z,29.74
2023-06-01T17:52:35.493Z,29.15
2023-06-01T17:55:02.033Z,28.77
2023-06-01T17:57:28.571Z,28.48
2023-06-01T17:59:55.110Z,28.24
2023-06-01T18:02:21.677Z,28.16
2023-06-01T18:04:50.180Z,28.00
2023-06-01T18:07:18.054Z,27.73
2023-06-01T18:09:49.631Z,27.60
2023-06-01T18:12:16.488Z,27.45
2023-06-01T18:14:43.126Z,27.35
2023-06-01T18:17:09.598Z,27.31
2023-06-01T18:19:36.393Z,27.24
2023-06-01T18:22:05.613Z,27.17
2023-06-01T18:24:32.318Z,27.08
2023-06-01T18:27:01.389Z,26.98
2023-06-01T18:29:28.249Z,26.92
2023-06-01T18:31:55.135Z,26.82
2023-06-01T18:34:22.138Z,26.76
2023-06-01T18:36:49.194Z,26.67
2023-06-01T18:39:16.200Z,26.59
2023-06-01T18:41:42.851Z,26.53
2023-06-01T18:44:09.902Z,26.47
2023-06-01T18:46:38.576Z,26.38
2023-06-01T18:49:06.038Z,26.31
2023-06-01T18:51:33.024Z,26.22
2023-06-01T18:54:01.565Z,26.19
2023-06-01T18:56:29.556Z,26.12
2023-06-01T18:58:57.717Z,26.05
2023-06-01T19:01:26.404Z,25.97
2023-06-01T19:03:54.081Z,25.84
2023-06-01T19:06:21.628Z,25.78
2023-06-01T19:08:48.427Z,25.69
2023-06-01T19:11:15.104Z,25.62
2023-06-01T19:13:52.817Z,25.58
2023-06-01T19:16:29.962Z,25.53
2023-06-01T19:18:58.889Z,25.44
2023-06-01T19:21:30.777Z,25.37
2023-06-01T19:23:58.789Z,25.25
2023-06-01T19:26:38.595Z,25.19
2023-06-01T19:29:09.427Z,25.12
2023-06-01T19:31:38.441Z,25.04
2023-06-01T19:34:07.212Z,24.99
2023-06-01T19:36:43.435Z,24.91
2023-06-01T19:39:16.302Z,24.88
2023-06-01T19:41:44.336Z,24.83
2023-06-01T19:44:17.274Z,24.80
2023-06-01T19:46:43.853Z,24.74
2023-06-01T19:49:15.590Z,24.68
2023-06-01T19:51:43.423Z,24.58
2023-06-01T19:54:19.333Z,24.51
2023-06-01T19:56:48.280Z,24.43
2023-06-01T19:59:23.784Z,24.38
2023-06-01T20:01:50.945Z,24.32
2023-06-01T20:04:18.012Z,24.28
2023-06-01T20:06:47.171Z,24.21
2023-06-01T20:09:18.868Z,24.16
2023-06-01T20:11:51.476Z,24.05
2023-06-01T20:14:35.228Z,23.97
2023-06-01T20:17:07.724Z,23.95
2023-06-01T20:19:34.687Z,23.87
2023-06-01T20:22:02.180Z,23.80
2023-06-01T20:24:30.915Z,23.70
2023-06-01T20:27:00.785Z,23.63
2023-06-01T20:29:29.527Z,23.54
2023-06-01T20:31:57.831Z,23.46
2023-06-01T20:34:25.835Z,23.42
2023-06-01T20:36:52.803Z,23.33
2023-06-01T20:39:21.165Z,23.26
2023-06-01T20:41:48.600Z,23.22
2023-06-01T20:44:17.782Z,23.16
2023-06-01T20:46:45.137Z,23.16
2023-06-01T20:49:11.891Z,23.16
2023-06-01T20:51:45.540Z,23.14
2023-06-01T20:54:15.109Z,23.08
2023-06-01T20:56:57.366Z,23.04
2023-06-01T20:59:32.799Z,22.99
2023-06-01T21:02:01.693Z,22.92
2023-06-01T21:04:36.018Z,22.91
2023-06-01T21:07:04.849Z,22.87
2023-06-01T21:09:32.635Z,22.87
2023-06-01T21:11:59.656Z,22.88
2023-06-01T21:14:26.456Z,22.89
2023-06-01T21:16:53.291Z,22.87
2023-06-01T21:19:21.889Z,22.89
2023-06-01T21:21:48.720Z,22.89
2023-06-01T21:24:17.859Z,22.82
2023-06-01T21:26:45.763Z,22.75
2023-06-01T21:29:13.268Z,22.66
2023-06-01T21:31:39.969Z,22.62
2023-06-01T21:34:06.844Z,22.55
2023-06-01T21:36:33.488Z,22.48
2023-06-01T21:39:00.488Z,22.47
2023-06-01T21:41:29.570Z,22.45
2023-06-01T21:43:56.435Z,22.41
2023-06-01T21:46:23.213Z,22.32
2023-06-01T21:48:49.975Z,22.11
2023-06-01T21:51:16.883Z,21.92
2023-06-01T21:53:44.760Z,21.84
2023-06-01T21:56:11.705Z,21.81
2023-06-01T21:58:39.223Z,21.78
2023-06-01T22:01:07.031Z,21.70
2023-06-01T22:03:34.953Z,21.54
2023-06-01T22:06:02.263Z,21.33
2023-06-01T22:08:29.220Z,21.27
2023-06-01T22:10:57.231Z,21.20
2023-06-01T22:13:24.119Z,21.11
2023-06-01T22:15:50.747Z,21.06
2023-06-01T22:18:17.385Z,21.01
2023-06-01T22:20:44.028Z,20.96
2023-06-01T22:23:10.948Z,20.98
2023-06-01T22:25:38.719Z,21.05
2023-06-01T22:28:06.453Z,21.10
2023-06-01T22:30:34.762Z,21.14
2023-06-01T22:33:02.875Z,21.12
2023-06-01T22:35:29.573Z,21.00
2023-06-01T22:37:56.560Z,20.91
2023-06-01T22:40:23.487Z,20.86
2023-06-01T22:42:53.778Z,20.86
2023-06-01T22:45:21.711Z,20.87
2023-06-01T22:47:49.153Z,20.87
2023-06-01T22:50:19.940Z,20.84
2023-06-01T22:52:47.503Z,20.76
2023-06-01T22:55:14.426Z,20.73
2023-06-01T22:57:41.199Z,20.69
2023-06-01T23:00:08.770Z,20.62
2023-06-01T23:02:35.706Z,20.54
2023-06-01T23:05:04.816Z,20.44
2023-06-01T23:07:33.433Z,20.38
2023-06-01T23:10:01.510Z,20.38
2023-06-01T23:12:31.141Z,20.28
2023-06-01T23:14:57.801Z,20.21
2023-06-01T23:17:27.749Z,20.19
2023-06-01T23:19:54.725Z,20.18
2023-06-01T23:22:21.764Z,20.08
2023-06-01T23:24:48.330Z,20.00
2023-06-01T23:27:15.394Z,19.94
2023-06-01T23:29:43.256Z,19.94
2023-06-01T23:32:10.767Z,19.93
2023-06-01T23:34:39.402Z,19.95
2023-06-01T23:37:06.916Z,19.89
2023-06-01T23:39:33.762Z,19.86
2023-06-01T23:42:00.551Z,19.81
2023-06-01T23:44:29.711Z,19.73
2023-06-01T23:46:56.337Z,19.75
2023-06-01T23:49:23.289Z,19.76
2023-06-01T23:51:51.638Z,19.74
2023-06-01T23:54:18.419Z,19.67
2023-06-01T23:56:45.277Z,19.57
2023-06-01T23:59:11.966Z,19.46
